createdAt,value
2019-05-14T00:01:06.097Z,89.59
2019-05-14T00:03:36.516Z,89.33
2019-05-14T00:06:06.977Z,88.64
2019-05-14T00:08:37.408Z,88.80
2019-05-14T00:11:07.959Z,88.72
2019-05-14T00:13:38.382Z,88.70
2019-05-14T00:16:08.877Z,89.37
2019-05-14T00:18:39.226Z,89.39
2019-05-14T00:21:12.026Z,88.98
2019-05-14T00:23:42.156Z,89.36
2019-05-14T00:26:12.721Z,89.71
2019-05-14T00:28:43.131Z,89.97
2019-05-14T00:31:13.587Z,89.84
2019-05-14T00:33:44.876Z,89.24
2019-05-14T00:36:15.357Z,89.50
2019-05-14T00:38:45.996Z,89.37
2019-05-14T00:41:16.551Z,88.83
2019-05-14T00:43:46.979Z,88.93
2019-05-14T00:46:17.469Z,88.73
2019-05-14T00:48:47.904Z,88.41
2019-05-14T00:51:18.392Z,88.31
2019-05-14T00:53:48.797Z,87.96
2019-05-14T00:56:21.447Z,88.41
2019-05-14T00:58:52.126Z,89.02
2019-05-14T01:01:22.841Z,89.08
2019-05-14T01:03:53.268Z,88.45
2019-05-14T01:06:23.761Z,89.08
2019-05-14T01:08:54.205Z,88.90
2019-05-14T01:11:24.705Z,88.99
2019-05-14T01:13:55.127Z,89.06
2019-05-14T01:16:25.639Z,88.91
2019-05-14T01:18:56.079Z,89.64
2019-05-14T01:21:26.585Z,89.42
2019-05-14T01:23:57.039Z,89.45
2019-05-14T01:26:27.531Z,89.57
2019-05-14T01:28:57.957Z,89.48
2019-05-14T01:31:28.444Z,89.09
2019-05-14T01:34:01.989Z,89.10
2019-05-14T01:36:32.143Z,88.85
2019-05-14T01:39:02.833Z,89.05
2019-05-14T01:41:33.399Z,88.99
2019-05-14T01:44:03.809Z,88.69
2019-05-14T01:46:34.304Z,88.29
2019-05-14T01:49:04.723Z,88.12
2019-05-14T01:51:35.203Z,88.26
2019-05-14T01:54:05.611Z,88.40
2019-05-14T01:56:36.084Z,89.11
2019-05-14T01:59:06.526Z,88.55
2019-05-14T02:01:37.021Z,88.28
2019-05-14T02:04:07.459Z,88.43
2019-05-14T02:06:37.952Z,88.40
2019-05-14T02:09:08.501Z,88.89
2019-05-14T02:11:41.292Z,88.89
2019-05-14T02:14:11.760Z,88.78
2019-05-14T02:16:42.467Z,88.50
2019-05-14T02:19:12.895Z,88.36
2019-05-14T02:21:43.415Z,89.03
2019-05-14T02:24:13.796Z,89.00
2019-05-14T02:26:44.369Z,88.66
2019-05-14T02:29:14.823Z,88.36
2019-05-14T02:31:45.302Z,88.24
2019-05-14T02:34:19.569Z,87.91
2019-05-14T02:36:49.708Z,87.92
2019-05-14T02:39:20.148Z,87.96
2019-05-14T02:41:50.764Z,87.73
2019-05-14T02:44:21.213Z,88.31
2019-05-14T02:46:51.742Z,87.90
2019-05-14T02:49:22.201Z,87.17
2019-05-14T02:51:53.712Z,87.48
2019-05-14T02:54:25.206Z,87.60
2019-05-14T02:56:55.700Z,87.50
2019-05-14T02:59:26.285Z,87.81
2019-05-14T03:01:59.161Z,87.16
2019-05-14T03:04:30.190Z,86.08
2019-05-14T03:07:01.076Z,86.71
2019-05-14T03:09:31.663Z,85.98
2019-05-14T03:12:02.192Z,85.78
2019-05-14T03:14:32.772Z,85.26
2019-05-14T03:17:03.280Z,85.69
2019-05-14T03:19:33.780Z,85.75
2019-05-14T03:22:04.309Z,84.83
2019-05-14T03:24:34.798Z,84.95
2019-05-14T03:27:05.546Z,84.26
2019-05-14T03:29:39.440Z,83.48
2019-05-14T03:32:12.739Z,82.87
2019-05-14T03:34:43.869Z,82.62
2019-05-14T03:37:14.322Z,82.49
2019-05-14T03:39:45.070Z,82.32
2019-05-14T03:42:19.031Z,82.53
2019-05-14T03:44:49.052Z,81.85
2019-05-14T03:47:19.906Z,81.67
2019-05-14T03:49:50.378Z,81.35
2019-05-14T03:52:20.886Z,81.60
2019-05-14T03:54:51.356Z,80.81
2019-05-14T03:57:21.860Z,80.66
2019-05-14T03:59:52.327Z,80.69
2019-05-14T04:02:23.266Z,80.65
2019-05-14T04:04:53.801Z,80.40
2019-05-14T04:07:25.905Z,79.92
2019-05-14T04:09:59.490Z,79.95
2019-05-14T04:12:31.754Z,80.09
2019-05-14T04:15:04.295Z,78.84
2019-05-14T04:17:38.814Z,79.28
2019-05-14T04:20:09.717Z,78.98
2019-05-14T04:22:41.271Z,79.11
2019-05-14T04:25:11.750Z,78.12
2019-05-14T04:27:43.869Z,78.13
2019-05-14T04:30:18.608Z,78.32
2019-05-14T04:32:50.464Z,78.20
2019-05-14T04:35:22.014Z,77.56
2019-05-14T04:37:52.574Z,77.57
2019-05-14T04:40:23.030Z,76.61
2019-05-14T04:42:53.616Z,77.00
2019-05-14T04:45:24.066Z,75.77
2019-05-14T04:47:54.586Z,76.45
2019-05-14T04:50:25.757Z,76.61
2019-05-14T04:52:59.642Z,75.29
2019-05-14T04:55:29.666Z,74.64
2019-05-14T04:58:00.345Z,74.27
2019-05-14T05:00:30.889Z,74.58
2019-05-14T05:03:01.461Z,74.12
2019-05-14T05:05:31.938Z,73.76
2019-05-14T05:08:02.498Z,73.11
2019-05-14T05:10:32.939Z,73.06
2019-05-14T05:13:03.423Z,71.67
2019-05-14T05:15:33.853Z,72.53
2019-05-14T05:18:04.325Z,72.13
2019-05-14T05:20:35.473Z,70.99
2019-05-14T05:23:08.388Z,69.00
2019-05-14T05:25:38.521Z,70.48
2019-05-14T05:28:08.969Z,69.33
2019-05-14T05:30:39.400Z,70.14
2019-05-14T05:33:09.876Z,69.73
2019-05-14T05:35:42.381Z,68.36
2019-05-14T05:38:12.995Z,67.57
2019-05-14T05:40:43.429Z,68.00
2019-05-14T05:43:13.983Z,68.66
2019-05-14T05:45:44.388Z,68.36
2019-05-14T05:48:14.931Z,67.63
2019-05-14T05:50:45.349Z,67.45
2019-05-14T05:53:15.749Z,66.89
2019-05-14T05:55:48.317Z,65.56
2019-05-14T05:58:19.672Z,65.79
2019-05-14T06:00:50.235Z,65.58
2019-05-14T06:03:21.163Z,65.17
2019-05-14T06:05:51.610Z,64.88
2019-05-14T06:08:22.121Z,63.04
2019-05-14T06:10:52.549Z,63.24
2019-05-14T06:13:23.029Z,63.22
2019-05-14T06:15:53.468Z,64.08
2019-05-14T06:18:23.945Z,64.32
2019-05-14T06:20:54.378Z,63.17
2019-05-14T06:23:24.864Z,61.99
2019-05-14T06:25:55.256Z,62.96
2019-05-14T06:28:32.197Z,62.76
2019-05-14T06:30:58.917Z,64.08
2019-05-14T06:33:29.602Z,62.01
2019-05-14T06:36:00.889Z,63.24
2019-05-14T06:38:31.384Z,62.96
2019-05-14T06:41:01.799Z,61.84
2019-05-14T06:43:32.425Z,61.16
2019-05-14T06:46:02.850Z,61.53
2019-05-14T06:48:34.814Z,61.49
2019-05-14T06:51:08.784Z,59.91
2019-05-14T06:53:39.499Z,59.24
2019-05-14T06:56:09.943Z,59.21
2019-05-14T06:58:40.429Z,59.42
2019-05-14T07:01:10.846Z,58.62
2019-05-14T07:03:41.340Z,56.80
2019-05-14T07:06:11.772Z,57.48
2019-05-14T07:08:42.277Z,58.05
2019-05-14T07:11:12.742Z,58.79
2019-05-14T07:13:43.225Z,59.84
2019-05-14T07:16:13.690Z,58.55
2019-05-14T07:18:49.233Z,59.01
2019-05-14T07:21:18.633Z,58.55
2019-05-14T07:23:49.866Z,58.39
2019-05-14T07:26:20.312Z,58.15
2019-05-14T07:28:50.975Z,56.91
2019-05-14T07:31:21.515Z,58.16
2019-05-14T07:33:58.281Z,57.89
2019-05-14T07:36:29.887Z,56.67
2019-05-14T07:39:00.566Z,57.15
2019-05-14T07:41:31.533Z,56.43
2019-05-14T07:44:02.487Z,54.86
2019-05-14T07:46:33.302Z,55.92
2019-05-14T07:49:09.307Z,52.78
2019-05-14T07:51:38.774Z,55.66
2019-05-14T07:54:09.481Z,54.16
2019-05-14T07:56:39.949Z,54.49
2019-05-14T07:59:10.459Z,56.20
2019-05-14T08:01:43.185Z,55.24
2019-05-14T08:04:13.697Z,53.60
2019-05-14T08:06:44.595Z,54.65
2019-05-14T08:09:15.958Z,52.98
2019-05-14T08:11:48.034Z,52.36
2019-05-14T08:14:18.693Z,52.97
2019-05-14T08:16:49.129Z,54.51
2019-05-14T08:19:26.502Z,52.51
2019-05-14T08:21:51.868Z,52.79
2019-05-14T08:24:27.042Z,52.88
2019-05-14T08:27:00.853Z,51.76
2019-05-14T08:29:31.327Z,51.70
2019-05-14T08:32:01.766Z,51.27
2019-05-14T08:34:32.937Z,50.10
2019-05-14T08:37:05.416Z,50.99
2019-05-14T08:39:35.947Z,50.00
2019-05-14T08:42:08.578Z,49.25
2019-05-14T08:44:39.236Z,50.85
2019-05-14T08:47:12.201Z,49.76
2019-05-14T08:49:46.529Z,47.30
2019-05-14T08:52:16.166Z,47.84
2019-05-14T08:54:50.584Z,49.15
2019-05-14T08:57:20.053Z,49.11
2019-05-14T08:59:50.600Z,49.43
2019-05-14T09:02:21.471Z,48.95
2019-05-14T09:05:04.194Z,49.64
2019-05-14T09:07:34.208Z,46.04
2019-05-14T09:10:09.932Z,46.31
2019-05-14T09:12:40.374Z,46.42
2019-05-14T09:15:11.395Z,47.82
2019-05-14T09:17:41.849Z,47.20
2019-05-14T09:20:13.216Z,46.31
2019-05-14T09:22:43.654Z,47.24
2019-05-14T09:25:14.343Z,44.15
2019-05-14T09:27:45.613Z,44.98
2019-05-14T09:30:18.366Z,45.15
2019-05-14T09:33:14.503Z,45.43
2019-05-14T09:36:09.656Z,47.21
2019-05-14T09:38:29.544Z,44.36
2019-05-14T09:41:11.228Z,46.34
2019-05-14T09:43:35.166Z,43.60
2019-05-14T09:46:05.817Z,43.88
2019-05-14T09:48:38.040Z,45.11
2019-05-14T09:51:09.284Z,44.88
2019-05-14T09:53:41.379Z,44.35
2019-05-14T09:56:11.885Z,44.45
2019-05-14T09:58:42.363Z,45.21
2019-05-14T10:01:12.841Z,45.54
2019-05-14T10:03:43.274Z,43.68
2019-05-14T10:06:14.152Z,43.72
2019-05-14T10:08:44.596Z,45.92
2019-05-14T10:11:15.008Z,43.93
2019-05-14T10:13:45.342Z,42.54
2019-05-14T10:16:18.596Z,44.43
2019-05-14T10:18:49.037Z,47.65
2019-05-14T10:21:20.159Z,44.82
2019-05-14T10:23:50.595Z,43.16
2019-05-14T10:26:22.518Z,42.86
2019-05-14T10:28:52.978Z,43.68
2019-05-14T10:31:25.891Z,43.54
2019-05-14T10:33:58.980Z,42.22
2019-05-14T10:36:30.241Z,40.24
2019-05-14T10:39:04.910Z,40.65
2019-05-14T10:41:39.980Z,40.31
2019-05-14T10:44:10.477Z,42.44
2019-05-14T10:46:58.313Z,43.53
2019-05-14T10:49:29.915Z,41.33
2019-05-14T10:52:00.685Z,42.23
2019-05-14T10:54:32.664Z,42.69
2019-05-14T10:57:20.827Z,45.40
2019-05-14T10:59:53.266Z,43.35
2019-05-14T11:02:24.286Z,42.80
2019-05-14T11:04:55.304Z,45.13
2019-05-14T11:07:26.185Z,44.12
2019-05-14T11:09:57.019Z,46.44
2019-05-14T11:12:29.686Z,45.78
2019-05-14T11:15:00.427Z,44.87
2019-05-14T11:17:31.516Z,44.53
2019-05-14T11:20:19.289Z,41.59
2019-05-14T11:22:58.318Z,42.15
2019-05-14T11:25:28.880Z,40.63
2019-05-14T11:28:00.278Z,42.17
2019-05-14T11:30:31.113Z,41.99
2019-05-14T11:33:01.655Z,43.88
2019-05-14T11:35:32.555Z,41.99
2019-05-14T11:38:03.029Z,40.18
2019-05-14T11:40:38.649Z,41.11
2019-05-14T11:43:10.148Z,42.29
2019-05-14T11:45:43.050Z,42.98
2019-05-14T11:48:15.115Z,42.85
2019-05-14T11:50:49.176Z,42.54
2019-05-14T11:53:20.358Z,42.72
2019-05-14T11:55:52.711Z,41.29
2019-05-14T11:58:23.762Z,41.34
2019-05-14T12:00:54.172Z,39.29
2019-05-14T12:03:24.708Z,40.13
2019-05-14T12:05:55.227Z,41.26
2019-05-14T12:08:25.797Z,39.76
2019-05-14T12:10:56.230Z,40.77
2019-05-14T12:13:30.062Z,41.61
2019-05-14T12:15:59.259Z,42.93
2019-05-14T12:18:29.738Z,41.08
2019-05-14T12:21:00.494Z,41.92
2019-05-14T12:23:30.982Z,40.25
2019-05-14T12:26:01.381Z,39.45
2019-05-14T12:28:32.341Z,39.50
2019-05-14T12:31:02.922Z,39.46
2019-05-14T12:33:33.628Z,40.35
2019-05-14T12:36:04.469Z,42.58
2019-05-14T12:38:34.950Z,41.09
2019-05-14T12:41:09.261Z,42.42
2019-05-14T12:43:43.696Z,42.59
2019-05-14T12:46:13.791Z,41.61
2019-05-14T12:48:44.511Z,40.60
2019-05-14T12:51:15.179Z,42.02
2019-05-14T12:53:48.686Z,38.90
2019-05-14T12:56:22.397Z,40.10
2019-05-14T12:58:55.115Z,39.55
2019-05-14T13:01:26.508Z,40.91
2019-05-14T13:03:59.410Z,41.71
2019-05-14T13:06:31.498Z,41.77
2019-05-14T13:09:06.010Z,42.53
2019-05-14T13:11:41.747Z,42.56
2019-05-14T13:14:19.334Z,41.90
2019-05-14T13:16:59.812Z,42.26
2019-05-14T13:19:34.761Z,41.98
2019-05-14T13:22:14.267Z,40.09
2019-05-14T13:24:43.374Z,40.03
2019-05-14T13:27:15.252Z,41.30
2019-05-14T13:29:48.537Z,42.73
2019-05-14T13:32:19.641Z,41.13
2019-05-14T13:34:54.199Z,41.58
2019-05-14T13:37:33.013Z,42.95
2019-05-14T13:40:09.176Z,42.88
2019-05-14T13:42:44.301Z,43.34
2019-05-14T13:45:14.114Z,42.10
2019-05-14T13:47:44.579Z,42.58
2019-05-14T13:50:15.713Z,43.04
2019-05-14T13:52:59.769Z,42.50
2019-05-14T13:55:21.376Z,42.78
2019-05-14T13:57:52.361Z,41.90
2019-05-14T14:00:23.606Z,43.74
2019-05-14T14:02:58.797Z,44.70
2019-05-14T14:05:28.910Z,44.96
2019-05-14T14:07:59.812Z,45.33
2019-05-14T14:10:35.850Z,44.84
2019-05-14T14:13:06.419Z,45.06
2019-05-14T14:15:35.171Z,45.54
2019-05-14T14:18:06.796Z,44.76
2019-05-14T14:20:40.177Z,44.70
2019-05-14T14:23:21.745Z,47.37
2019-05-14T14:25:43.885Z,45.50
2019-05-14T14:28:14.501Z,45.57
2019-05-14T14:30:45.013Z,46.30
2019-05-14T14:33:18.280Z,48.54
2019-05-14T14:35:48.773Z,46.21
2019-05-14T14:38:20.125Z,46.31
2019-05-14T14:40:50.837Z,47.52
2019-05-14T14:43:22.226Z,46.67
2019-05-14T14:45:53.224Z,47.14
2019-05-14T14:48:30.312Z,47.71
2019-05-14T14:50:59.971Z,48.44
2019-05-14T14:53:43.084Z,48.18
2019-05-14T14:56:03.305Z,46.93
2019-05-14T14:58:34.630Z,47.30
2019-05-14T15:01:05.141Z,47.94
2019-05-14T15:03:36.309Z,47.64
2019-05-14T15:06:09.701Z,47.03
2019-05-14T15:08:40.418Z,46.92
2019-05-14T15:11:10.924Z,46.92
2019-05-14T15:13:41.403Z,46.50
2019-05-14T15:16:14.158Z,45.89
2019-05-14T15:18:44.771Z,46.85
2019-05-14T15:21:15.281Z,45.82
2019-05-14T15:24:02.988Z,44.11
2019-05-14T15:26:20.159Z,44.14
2019-05-14T15:28:50.656Z,45.01
2019-05-14T15:31:21.280Z,45.02
2019-05-14T15:33:51.765Z,44.92
2019-05-14T15:36:22.277Z,44.75
2019-05-14T15:38:52.759Z,44.71
2019-05-14T15:41:25.259Z,45.35
2019-05-14T15:43:59.809Z,44.44
2019-05-14T15:46:32.772Z,45.30
2019-05-14T15:49:09.034Z,44.11
2019-05-14T15:51:43.963Z,43.29
2019-05-14T15:54:36.149Z,42.62
2019-05-14T15:56:53.802Z,41.80
2019-05-14T15:59:30.328Z,40.98
2019-05-14T16:02:09.413Z,41.18
2019-05-14T16:04:43.780Z,43.49
2019-05-14T16:07:18.578Z,41.97
2019-05-14T16:09:50.172Z,42.49
2019-05-14T16:12:22.278Z,42.82
2019-05-14T16:14:55.183Z,42.74
2019-05-14T16:17:30.430Z,43.23
2019-05-14T16:20:04.066Z,44.12
2019-05-14T16:22:39.981Z,44.22
2019-05-14T16:25:12.968Z,45.38
2019-05-14T16:27:48.660Z,46.30
2019-05-14T16:30:28.653Z,46.47
2019-05-14T16:33:01.917Z,47.27
2019-05-14T16:35:34.661Z,47.09
2019-05-14T16:38:08.370Z,46.30
2019-05-14T16:40:39.763Z,46.36
2019-05-14T16:43:10.307Z,46.97
2019-05-14T16:45:41.624Z,48.45
2019-05-14T16:48:12.340Z,48.36
2019-05-14T16:50:42.793Z,49.83
2019-05-14T16:53:15.006Z,48.97
2019-05-14T16:55:45.479Z,49.63
2019-05-14T16:58:19.195Z,49.25
2019-05-14T17:00:48.274Z,49.65
2019-05-14T17:03:19.241Z,51.29
2019-05-14T17:05:50.367Z,51.73
2019-05-14T17:08:20.876Z,51.21
2019-05-14T17:10:51.327Z,52.05
2019-05-14T17:13:21.834Z,53.25
2019-05-14T17:15:52.309Z,53.62
2019-05-14T17:18:22.764Z,55.05
2019-05-14T17:20:53.241Z,55.22
2019-05-14T17:23:23.747Z,55.03
2019-05-14T17:25:54.222Z,55.74
2019-05-14T17:28:24.752Z,57.68
2019-05-14T17:30:55.220Z,57.62
2019-05-14T17:33:25.741Z,58.08
2019-05-14T17:35:58.529Z,58.78
2019-05-14T17:38:29.222Z,58.39
2019-05-14T17:41:00.158Z,58.39
2019-05-14T17:43:30.703Z,58.80
2019-05-14T17:46:02.180Z,59.23
2019-05-14T17:48:32.702Z,60.11
2019-05-14T17:51:03.202Z,59.97
2019-05-14T17:53:33.803Z,60.66
2019-05-14T17:56:08.414Z,61.16
2019-05-14T17:58:38.639Z,62.71
2019-05-14T18:01:09.269Z,62.21
2019-05-14T18:03:40.301Z,62.65
2019-05-14T18:06:10.881Z,63.15
2019-05-14T18:08:41.382Z,61.93
2019-05-14T18:11:11.994Z,62.93
2019-05-14T18:13:42.518Z,64.01
2019-05-14T18:16:12.995Z,63.02
2019-05-14T18:18:44.610Z,63.90
2019-05-14T18:21:15.086Z,64.06
2019-05-14T18:23:45.616Z,64.34
2019-05-14T18:26:16.100Z,65.07
2019-05-14T18:28:46.610Z,65.31
2019-05-14T18:31:20.397Z,65.59
2019-05-14T18:33:49.619Z,66.75
2019-05-14T18:36:21.699Z,66.62
2019-05-14T18:38:52.228Z,66.35
2019-05-14T18:41:22.672Z,66.82
2019-05-14T18:43:53.182Z,66.00
2019-05-14T18:46:24.484Z,67.52
2019-05-14T18:48:54.988Z,67.53
2019-05-14T18:51:25.435Z,68.06
2019-05-14T18:53:58.300Z,68.75
2019-05-14T18:56:29.297Z,70.38
2019-05-14T18:58:59.937Z,69.91
2019-05-14T19:01:30.429Z,70.36
2019-05-14T19:04:00.889Z,71.14
2019-05-14T19:06:31.338Z,70.78
2019-05-14T19:09:01.849Z,71.03
2019-05-14T19:11:32.198Z,70.77
2019-05-14T19:14:02.715Z,70.83
2019-05-14T19:16:33.462Z,71.42
2019-05-14T19:19:03.986Z,71.19
2019-05-14T19:21:34.433Z,71.20
2019-05-14T19:24:04.905Z,71.65
2019-05-14T19:26:37.774Z,72.07
2019-05-14T19:29:08.663Z,72.44
2019-05-14T19:31:39.239Z,72.48
2019-05-14T19:34:09.713Z,72.01
2019-05-14T19:36:40.171Z,72.06
2019-05-14T19:39:10.659Z,72.40
2019-05-14T19:41:41.018Z,71.74
2019-05-14T19:44:12.546Z,71.78
2019-05-14T19:46:43.101Z,72.37
2019-05-14T19:49:13.606Z,72.73
2019-05-14T19:51:44.052Z,72.60
2019-05-14T19:54:14.624Z,72.41
2019-05-14T19:56:53.246Z,72.90
2019-05-14T19:59:18.337Z,73.76
2019-05-14T20:01:48.754Z,74.57
2019-05-14T20:04:19.377Z,74.51
2019-05-14T20:06:49.800Z,74.05
2019-05-14T20:09:20.276Z,74.82
2019-05-14T20:11:50.730Z,74.16
2019-05-14T20:14:21.226Z,73.65
2019-05-14T20:16:51.695Z,73.96
2019-05-14T20:19:22.173Z,74.47
2019-05-14T20:21:52.625Z,75.10
2019-05-14T20:24:23.095Z,75.04
2019-05-14T20:27:05.717Z,75.77
2019-05-14T20:29:25.695Z,75.86
2019-05-14T20:31:56.125Z,75.50
2019-05-14T20:34:28.565Z,76.43
2019-05-14T20:36:58.887Z,76.65
2019-05-14T20:39:31.634Z,76.73
2019-05-14T20:42:01.544Z,76.94
2019-05-14T20:44:32.032Z,77.02
2019-05-14T20:47:03.312Z,77.42
2019-05-14T20:49:33.792Z,78.34
2019-05-14T20:52:04.213Z,78.20
2019-05-14T20:54:34.775Z,78.83
2019-05-14T20:57:19.726Z,78.66
2019-05-14T20:59:38.946Z,78.20
2019-05-14T21:02:09.440Z,77.64
2019-05-14T21:04:39.830Z,78.03
2019-05-14T21:07:10.261Z,78.01
2019-05-14T21:09:40.659Z,78.44
2019-05-14T21:12:11.098Z,78.77
2019-05-14T21:14:41.629Z,78.97
2019-05-14T21:17:12.077Z,78.92
2019-05-14T21:19:42.580Z,78.54
2019-05-14T21:22:12.992Z,78.37
2019-05-14T21:24:43.385Z,78.42
2019-05-14T21:27:13.813Z,78.17
2019-05-14T21:29:44.283Z,78.47
2019-05-14T21:32:14.640Z,78.50
2019-05-14T21:34:45.025Z,78.72
2019-05-14T21:37:15.451Z,78.79
2019-05-14T21:39:45.924Z,78.69
2019-05-14T21:42:19.274Z,78.71
2019-05-14T21:44:51.442Z,78.69
2019-05-14T21:47:21.424Z,78.96
2019-05-14T21:49:51.903Z,79.01
2019-05-14T21:52:22.325Z,79.36
2019-05-14T21:54:52.882Z,77.99
2019-05-14T21:57:23.315Z,78.72
2019-05-14T21:59:53.808Z,78.46
2019-05-14T22:02:27.431Z,78.72
2019-05-14T22:04:58.257Z,78.63
2019-05-14T22:07:28.550Z,78.43
2019-05-14T22:09:59.045Z,77.85
2019-05-14T22:12:29.477Z,78.58
2019-05-14T22:14:59.976Z,79.01
2019-05-14T22:17:30.420Z,78.61
2019-05-14T22:20:01.090Z,79.19
2019-05-14T22:22:31.534Z,79.59
2019-05-14T22:25:02.008Z,78.34
2019-05-14T22:27:32.437Z,78.58
2019-05-14T22:30:03.414Z,79.70
2019-05-14T22:32:33.856Z,79.50
2019-05-14T22:35:08.595Z,78.99
2019-05-14T22:37:39.086Z,78.46
2019-05-14T22:40:09.781Z,79.03
2019-05-14T22:42:40.250Z,78.87
2019-05-14T22:45:11.025Z,79.67
2019-05-14T22:47:42.318Z,78.94
2019-05-14T22:50:12.805Z,79.39
2019-05-14T22:52:43.251Z,79.08
2019-05-14T22:55:13.790Z,79.63
2019-05-14T23:34:33.196Z,78.88
2019-05-14T23:47:14.550Z,77.54
2019-05-14T23:49:53.615Z,78.00
2019-05-14T23:52:44.059Z,78.42
2019-05-14T23:55:38.369Z,79.01
2019-05-14T23:59:03.509Z,79.40
